Time;durP1;ratioP1;P1;durP2;ratioP2;P2;SDS_P1;SDS_P2;PMS_P1;PMS_P2;Temp;Humidity;BMP_temperature;BMP_pressure;BME280_temperature;BME280_humidity;BME280_pressure;Samples;Min_cycle;Max_cycle;Signal;HPM_P1;HPM_P2
2021/03/04 00:01:46;;;;;;;18.97;15.53;;;12.00;33.20;;;;;;5052055;28;20245;-66
2021/03/04 00:04:12;;;;;;;17.57;15.77;;;12.00;32.60;;;;;;5052271;28;20210;-67
2021/03/04 00:06:37;;;;;;;17.30;15.40;;;12.10;32.10;;;;;;5051842;28;20592;-67
2021/03/04 00:09:05;;;;;;;17.50;14.80;;;12.00;31.80;;;;;;5053364;28;20183;-66
2021/03/04 00:11:30;;;;;;;24.40;15.30;;;12.10;31.10;;;;;;5052994;28;20192;-67
2021/03/04 00:13:56;;;;;;;16.37;14.50;;;12.00;31.30;;;;;;5052447;28;20413;-67
2021/03/04 00:16:21;;;;;;;20.00;15.30;;;11.80;32.40;;;;;;5055493;28;20667;-67
2021/03/04 00:18:47;;;;;;;21.47;15.60;;;12.00;32.00;;;;;;5055496;28;20168;-67
2021/03/04 00:21:12;;;;;;;21.33;15.90;;;11.90;32.50;;;;;;5055717;28;20192;-68
2021/03/04 00:23:38;;;;;;;17.97;16.07;;;11.80;32.80;;;;;;5056082;28;20168;-67
2021/03/04 00:26:03;;;;;;;16.73;14.80;;;12.00;31.90;;;;;;5055413;28;20241;-67
2021/03/04 00:28:29;;;;;;;18.70;14.47;;;12.10;30.80;;;;;;5056743;28;20176;-67
2021/03/04 00:30:54;;;;;;;16.97;14.23;;;12.10;30.90;;;;;;5056025;28;20199;-67
2021/03/04 00:33:20;;;;;;;15.40;12.60;;;12.10;30.80;;;;;;5054903;28;20172;-68
2021/03/04 00:35:45;;;;;;;15.27;13.17;;;12.20;29.90;;;;;;5053996;28;20172;-67
2021/03/04 00:38:11;;;;;;;14.53;12.63;;;12.20;29.70;;;;;;5053942;28;20675;-66
2021/03/04 00:40:37;;;;;;;18.17;12.60;;;12.00;29.30;;;;;;5053998;28;20243;-67
2021/03/04 00:43:03;;;;;;;15.17;12.60;;;11.90;29.50;;;;;;5054118;28;20183;-67
2021/03/04 00:45:29;;;;;;;13.73;12.23;;;11.80;29.90;;;;;;5053894;28;20702;-67
2021/03/04 00:47:54;;;;;;;16.60;12.30;;;11.80;30.30;;;;;;5053654;28;20431;-67
2021/03/04 00:50:20;;;;;;;14.90;13.33;;;11.80;30.00;;;;;;5054091;28;20203;-67
2021/03/04 00:52:46;;;;;;;13.67;12.30;;;12.00;29.90;;;;;;5054238;28;20638;-68
2021/03/04 00:55:11;;;;;;;13.67;12.37;;;11.90;29.70;;;;;;5055001;28;20204;-66
2021/03/04 00:57:37;;;;;;;16.77;12.90;;;11.90;29.70;;;;;;5054283;28;20176;-66
2021/03/04 01:00:06;;;;;;;15.40;12.57;;;11.80;30.40;;;;;;5053944;28;20282;-67
2021/03/04 01:02:31;;;;;;;13.87;12.30;;;11.70;29.90;;;;;;5053058;28;20263;-66
2021/03/04 01:04:57;;;;;;;17.10;13.10;;;11.50;30.30;;;;;;5052501;28;20908;-65
2021/03/04 01:07:22;;;;;;;15.40;12.93;;;11.60;31.00;;;;;;5052250;28;20184;-68
2021/03/04 01:09:48;;;;;;;15.03;12.00;;;11.60;30.80;;;;;;5051828;28;20195;-67
2021/03/04 01:12:13;;;;;;;21.80;12.77;;;11.50;30.60;;;;;;5051869;28;20180;-67
2021/03/04 01:14:39;;;;;;;15.97;11.30;;;11.60;30.70;;;;;;5050892;28;20171;-67
2021/03/04 01:17:07;;;;;;;11.77;10.73;;;11.60;30.60;;;;;;5051586;28;20259;-68
2021/03/04 01:19:33;;;;;;;14.17;12.30;;;11.50;30.60;;;;;;5059007;28;20203;-68
2021/03/04 01:21:58;;;;;;;13.23;11.90;;;11.50;31.30;;;;;;5067077;28;20437;-67
2021/03/04 01:24:24;;;;;;;14.90;13.37;;;11.50;31.20;;;;;;5072524;28;20175;-67
2021/03/04 01:26:49;;;;;;;13.37;11.97;;;11.50;31.50;;;;;;5060248;28;20658;-66
2021/03/04 01:29:15;;;;;;;16.03;12.57;;;11.60;31.60;;;;;;5052517;28;20180;-66
2021/03/04 01:31:40;;;;;;;14.07;11.90;;;11.60;30.90;;;;;;5051631;28;20202;-67
2021/03/04 01:34:06;;;;;;;17.60;14.70;;;11.60;30.70;;;;;;5065252;28;20214;-68
2021/03/04 01:36:31;;;;;;;15.70;14.03;;;11.50;31.70;;;;;;5071333;28;20175;-66
2021/03/04 01:38:57;;;;;;;17.33;13.27;;;11.50;31.20;;;;;;5071055;28;20278;-66
2021/03/04 01:41:22;;;;;;;15.00;12.57;;;11.30;31.50;;;;;;5070850;28;20195;-67
2021/03/04 01:43:48;;;;;;;15.87;12.90;;;11.30;31.70;;;;;;5071929;28;20167;-66
2021/03/04 01:46:14;;;;;;;14.77;13.10;;;11.10;32.30;;;;;;5072669;28;20262;-67
2021/03/04 01:48:40;;;;;;;13.67;12.27;;;11.20;32.00;;;;;;5073321;28;20171;-67
2021/03/04 01:51:06;;;;;;;16.67;13.50;;;11.00;32.40;;;;;;5073505;28;20195;-65
2021/03/04 01:53:32;;;;;;;16.13;14.43;;;11.20;32.50;;;;;;5073264;28;20795;-67
2021/03/04 01:55:58;;;;;;;17.90;13.00;;;11.30;32.70;;;;;;5073340;28;20163;-67
2021/03/04 01:58:24;;;;;;;14.70;13.07;;;11.30;32.60;;;;;;5072369;28;21070;-67
2021/03/04 02:04:11;;;;;;;14.00;11.93;;;11.30;32.60;;;;;;5073494;28;20205;-66
2021/03/04 02:07:02;;;;;;;14.60;11.53;;;11.40;31.90;;;;;;5072851;28;20406;-66
2021/03/04 02:09:30;;;;;;;14.43;13.00;;;11.50;31.30;;;;;;5073562;28;20714;-65
2021/03/04 02:12:02;;;;;;;15.00;13.03;;;11.60;31.00;;;;;;5072365;28;20430;-67
2021/03/04 02:14:33;;;;;;;13.83;12.53;;;11.60;30.60;;;;;;5073798;28;20904;-67
2021/03/04 02:17:01;;;;;;;13.33;11.97;;;11.60;30.60;;;;;;5073719;28;20442;-67
2021/03/04 02:19:36;;;;;;;12.90;11.60;;;11.50;30.60;;;;;;5073282;28;20429;-67
2021/03/04 02:22:38;;;;;;;13.50;12.00;;;11.50;30.60;;;;;;5074158;28;20417;-67
2021/03/04 02:25:32;;;;;;;15.60;12.43;;;11.30;31.20;;;;;;5069960;28;20492;-67
2021/03/04 02:28:00;;;;;;;14.60;13.20;;;11.20;32.50;;;;;;5069412;28;20425;-66
2021/03/04 02:30:37;;;;;;;12.47;11.17;;;11.20;32.50;;;;;;5069399;28;20479;-66
2021/03/04 02:33:17;;;;;;;13.00;11.70;;;11.20;32.50;;;;;;5069610;28;20405;-66
2021/03/04 02:35:44;;;;;;;11.77;10.67;;;11.10;31.40;;;;;;5069502;28;20794;-66
2021/03/04 02:38:17;;;;;;;14.37;13.07;;;11.00;32.00;;;;;;5069099;28;20466;-65
2021/03/04 02:40:46;;;;;;;12.80;11.50;;;10.90;32.20;;;;;;5069336;28;20495;-66
2021/03/04 02:43:14;;;;;;;14.13;12.70;;;11.00;32.40;;;;;;5069341;28;20411;-66
2021/03/04 02:45:42;;;;;;;16.00;11.57;;;11.10;32.50;;;;;;5069901;28;21117;-67
2021/03/04 02:48:12;;;;;;;13.07;11.87;;;11.10;30.50;;;;;;5069533;28;20417;-66
2021/03/04 02:50:39;;;;;;;14.00;11.80;;;11.10;32.50;;;;;;5069640;28;21127;-67
2021/03/04 02:53:05;;;;;;;12.57;11.30;;;11.30;31.50;;;;;;5072260;28;20413;-66
2021/03/04 02:55:33;;;;;;;12.70;10.30;;;11.30;30.50;;;;;;5074365;28;20912;-66
2021/03/04 02:58:00;;;;;;;11.50;10.40;;;11.20;29.50;;;;;;5073521;28;20896;-64
2021/03/04 03:00:28;;;;;;;11.50;10.40;;;11.20;30.80;;;;;;5072289;28;20473;-66
2021/03/04 03:02:56;;;;;;;13.33;10.80;;;11.30;30.50;;;;;;5070414;28;20919;-65
2021/03/04 03:05:24;;;;;;;11.37;10.27;;;11.40;30.10;;;;;;5070009;28;20448;-66
2021/03/04 03:07:51;;;;;;;13.30;10.43;;;11.40;29.80;;;;;;5070820;28;20413;-66
2021/03/04 03:10:18;;;;;;;11.93;10.60;;;11.40;29.10;;;;;;5070882;28;20951;-67
2021/03/04 03:12:46;;;;;;;12.60;10.27;;;11.50;28.50;;;;;;5069718;28;20418;-66
2021/03/04 03:15:17;;;;;;;13.23;11.83;;;11.70;28.20;;;;;;5071170;28;20425;-66
2021/03/04 03:17:44;;;;;;;12.00;10.70;;;11.50;28.10;;;;;;5070150;28;20426;-67
2021/03/04 03:20:18;;;;;;;13.43;10.97;;;11.50;28.40;;;;;;5069719;28;20897;-66
2021/03/04 03:22:46;;;;;;;12.20;10.27;;;11.50;28.80;;;;;;5051941;28;20415;-67
2021/03/04 03:25:12;;;;;;;12.57;10.20;;;11.40;28.60;;;;;;5059354;28;20435;-68
2021/03/04 03:27:39;;;;;;;11.87;10.50;;;11.40;28.80;;;;;;5066640;28;20426;-68
2021/03/04 03:30:08;;;;;;;11.10;10.00;;;11.30;29.00;;;;;;5057504;28;20979;-68
2021/03/04 03:32:35;;;;;;;9.77;8.97;;;11.40;28.70;;;;;;5060845;28;20468;-68
2021/03/04 03:35:03;;;;;;;11.27;10.03;;;11.30;28.40;;;;;;5077280;28;20414;-68
2021/03/04 03:37:29;;;;;;;11.33;9.63;;;11.10;29.20;;;;;;5077265;28;20432;-67
2021/03/04 03:39:56;;;;;;;11.73;9.80;;;11.00;29.20;;;;;;5070060;28;20465;-68
2021/03/04 03:42:22;;;;;;;11.17;10.03;;;11.00;29.30;;;;;;5070149;28;20224;-68
2021/03/04 03:44:48;;;;;;;12.00;10.67;;;11.20;28.80;;;;;;5073767;28;20425;-68
2021/03/04 03:47:15;;;;;;;11.70;10.57;;;11.30;28.30;;;;;;5073837;28;20406;-68
2021/03/04 03:49:41;;;;;;;12.20;10.90;;;11.30;28.50;;;;;;5073077;28;20413;-68
2021/03/04 03:52:07;;;;;;;13.67;10.80;;;11.30;28.20;;;;;;5073047;28;20424;-68
2021/03/04 03:54:34;;;;;;;13.50;11.47;;;11.40;28.10;;;;;;5072721;28;20489;-68
2021/03/04 03:57:01;;;;;;;14.80;12.07;;;11.40;27.80;;;;;;5073097;28;20423;-67
2021/03/04 03:59:27;;;;;;;11.90;10.70;;;11.50;28.00;;;;;;5072815;28;20902;-68
2021/03/04 04:01:53;;;;;;;15.30;11.43;;;11.40;28.40;;;;;;5072997;28;20861;-68
2021/03/04 04:04:19;;;;;;;15.40;11.63;;;11.30;28.50;;;;;;5072822;28;20501;-68
2021/03/04 04:06:45;;;;;;;13.30;10.43;;;11.30;28.30;;;;;;5072898;28;20421;-68
2021/03/04 04:09:10;;;;;;;16.17;11.03;;;11.20;28.20;;;;;;5072989;28;20758;-68
2021/03/04 04:11:36;;;;;;;11.50;10.20;;;11.20;28.30;;;;;;5072660;28;20272;-67
2021/03/04 04:14:02;;;;;;;13.90;11.17;;;11.20;28.30;;;;;;5072535;28;20186;-67
2021/03/04 04:16:28;;;;;;;11.60;10.40;;;11.10;28.20;;;;;;5072987;28;20658;-67
2021/03/04 04:18:55;;;;;;;10.83;9.83;;;11.20;29.00;;;;;;5072197;28;20212;-67
2021/03/04 04:21:21;;;;;;;14.70;10.80;;;11.10;28.90;;;;;;5072007;28;20425;-68
2021/03/04 04:23:47;;;;;;;12.00;10.70;;;11.10;28.30;;;;;;5078031;28;20420;-68
2021/03/04 04:26:13;;;;;;;12.10;10.90;;;11.20;29.10;;;;;;5078488;28;20687;-68
2021/03/04 04:28:38;;;;;;;13.60;11.10;;;11.40;28.80;;;;;;5077979;28;20418;-68
2021/03/04 04:31:04;;;;;;;12.20;10.90;;;11.40;28.70;;;;;;5078397;28;20438;-66
2021/03/04 04:33:30;;;;;;;11.20;10.10;;;11.40;28.70;;;;;;5075256;28;20319;-67
2021/03/04 04:35:56;;;;;;;13.63;10.63;;;11.30;28.90;;;;;;5073735;28;20752;-67
2021/03/04 04:38:21;;;;;;;11.77;10.33;;;11.30;29.00;;;;;;5070713;28;20480;-67
2021/03/04 04:40:47;;;;;;;14.00;10.30;;;11.30;28.80;;;;;;5071781;28;20203;-67
2021/03/04 04:43:13;;;;;;;11.90;10.70;;;11.40;28.90;;;;;;5071417;28;20171;-67
2021/03/04 04:45:38;;;;;;;14.77;12.57;;;11.30;28.80;;;;;;5071330;28;20183;-67
2021/03/04 04:48:04;;;;;;;12.30;11.10;;;11.20;29.20;;;;;;5071731;28;20167;-67
2021/03/04 04:50:30;;;;;;;10.87;9.77;;;11.10;29.50;;;;;;5072854;28;20686;-67
2021/03/04 04:52:55;;;;;;;11.93;10.10;;;11.10;29.60;;;;;;5064724;28;20958;-66
2021/03/04 04:55:21;;;;;;;13.60;10.63;;;11.10;29.60;;;;;;5064105;28;20175;-67
2021/03/04 04:57:47;;;;;;;11.37;10.27;;;11.10;29.60;;;;;;5052153;28;20230;-68
2021/03/04 05:00:13;;;;;;;12.57;11.47;;;11.00;29.50;;;;;;5052936;28;20464;-68
2021/03/04 05:02:38;;;;;;;14.27;11.70;;;10.90;29.60;;;;;;5053539;28;20179;-67
2021/03/04 05:05:06;;;;;;;12.60;10.33;;;11.00;29.30;;;;;;5052448;28;20406;-66
2021/03/04 05:07:32;;;;;;;13.47;11.57;;;11.10;29.80;;;;;;5052429;28;20279;-66
2021/03/04 05:09:57;;;;;;;12.00;10.80;;;11.20;29.60;;;;;;5052775;28;21146;-66
2021/03/04 05:12:23;;;;;;;12.97;11.17;;;11.30;29.50;;;;;;5052926;28;20180;-66
2021/03/04 05:14:49;;;;;;;11.73;10.53;;;11.20;29.70;;;;;;5052617;28;20176;-66
2021/03/04 05:17:14;;;;;;;17.17;13.13;;;11.00;29.70;;;;;;5052068;28;20641;-66
2021/03/04 05:19:40;;;;;;;13.50;12.07;;;11.00;30.00;;;;;;5052363;28;20533;-67
2021/03/04 05:22:06;;;;;;;14.33;12.53;;;11.20;29.10;;;;;;5051784;28;20219;-67
2021/03/04 05:24:31;;;;;;;12.00;10.80;;;11.20;29.20;;;;;;5056382;28;20191;-66
2021/03/04 05:26:57;;;;;;;10.13;9.10;;;11.20;29.00;;;;;;5069235;28;20186;-67
2021/03/04 05:29:22;;;;;;;10.33;9.33;;;11.10;29.20;;;;;;5059682;28;20190;-67
2021/03/04 05:31:48;;;;;;;12.87;9.97;;;11.20;28.90;;;;;;5052425;28;20682;-68
2021/03/04 05:34:13;;;;;;;17.07;10.77;;;11.20;28.80;;;;;;5051936;28;20215;-67
2021/03/04 05:36:39;;;;;;;11.07;10.07;;;11.30;28.70;;;;;;5052584;28;20782;-67
2021/03/04 05:39:04;;;;;;;12.47;11.20;;;11.30;28.80;;;;;;5070737;28;20256;-67
2021/03/04 05:41:31;;;;;;;12.13;10.93;;;11.30;28.50;;;;;;5054517;28;20700;-68
2021/03/04 05:43:58;;;;;;;35.43;23.73;;;11.20;28.90;;;;;;5055893;28;20175;-68
2021/03/04 05:46:23;;;;;;;14.50;11.90;;;11.10;29.00;;;;;;5066782;28;20842;-68
2021/03/04 05:48:50;;;;;;;10.70;9.70;;;11.10;29.00;;;;;;5068786;28;20417;-68
2021/03/04 05:51:25;;;;;;;12.10;10.90;;;11.00;28.60;;;;;;5057779;28;20258;-66
2021/03/04 05:53:56;;;;;;;10.90;9.93;;;11.10;28.70;;;;;;5049683;28;20845;-68
2021/03/04 05:56:22;;;;;;;11.80;10.63;;;11.10;28.60;;;;;;5068821;28;20912;-68
2021/03/04 05:58:48;;;;;;;16.53;10.23;;;10.90;28.20;;;;;;5069263;28;20421;-68
2021/03/04 06:01:14;;;;;;;28.43;25.43;;;10.90;28.10;;;;;;5069199;28;20213;-68
2021/03/04 06:03:40;;;;;;;16.63;14.37;;;10.70;28.70;;;;;;5069680;28;20422;-70
2021/03/04 06:06:07;;;;;;;17.17;12.50;;;11.00;29.00;;;;;;5049679;28;20506;-70
2021/03/04 06:08:36;;;;;;;13.53;10.60;;;10.90;27.80;;;;;;5049568;28;20414;-69
2021/03/04 06:11:03;;;;;;;11.53;9.93;;;10.90;28.00;;;;;;5049294;28;20909;-70
2021/03/04 06:13:29;;;;;;;18.77;10.87;;;11.00;29.00;;;;;;5049512;28;20414;-68
2021/03/04 06:15:55;;;;;;;10.00;8.97;;;10.80;28.40;;;;;;5049175;28;20782;-68
2021/03/04 06:18:21;;;;;;;11.07;9.87;;;10.80;28.60;;;;;;5051111;28;20432;-69
2021/03/04 06:20:46;;;;;;;11.47;10.00;;;10.70;28.80;;;;;;5051695;28;20764;-69
2021/03/04 06:23:13;;;;;;;14.87;9.50;;;10.60;28.70;;;;;;5057905;28;20544;-68
2021/03/04 06:25:39;;;;;;;10.77;9.67;;;10.70;29.70;;;;;;5060115;28;20190;-70
2021/03/04 06:28:08;;;;;;;12.00;9.00;;;10.80;29.20;;;;;;5056642;28;20426;-70
2021/03/04 06:30:39;;;;;;;11.90;9.70;;;10.90;29.70;;;;;;5067483;28;20461;-70
2021/03/04 06:33:10;;;;;;;16.80;9.60;;;10.80;29.40;;;;;;5069173;28;20414;-69
2021/03/04 06:35:41;;;;;;;11.00;9.30;;;10.80;29.10;;;;;;5051880;28;20545;-69
2021/03/04 06:38:22;;;;;;;10.60;9.50;;;10.90;29.10;;;;;;5055713;28;20426;-69
2021/03/04 06:40:50;;;;;;;10.20;9.17;;;10.80;29.10;;;;;;5048824;28;20466;-69
2021/03/04 06:43:23;;;;;;;10.70;9.60;;;10.90;28.80;;;;;;5052986;28;20465;-67
2021/03/04 06:45:50;;;;;;;12.53;9.93;;;10.90;28.50;;;;;;5061489;28;20828;-69
2021/03/04 06:48:17;;;;;;;10.83;9.90;;;11.00;28.30;;;;;;5058410;28;21222;-68
2021/03/04 06:50:46;;;;;;;13.40;9.43;;;11.00;28.10;;;;;;5062992;28;20437;-68
2021/03/04 06:53:18;;;;;;;13.00;8.77;;;11.00;27.50;;;;;;5060520;28;20427;-68
2021/03/04 06:55:50;;;;;;;12.80;10.07;;;11.10;27.60;;;;;;5049452;28;20411;-68
2021/03/04 06:58:32;;;;;;;16.87;10.80;;;11.20;27.40;;;;;;5058328;28;20431;-68
2021/03/04 07:01:07;;;;;;;22.90;14.97;;;11.30;27.10;;;;;;5064630;28;20568;-69
2021/03/04 07:03:36;;;;;;;21.70;11.17;;;11.40;26.70;;;;;;5054423;28;20436;-68
2021/03/04 07:06:04;;;;;;;18.30;10.53;;;11.40;26.20;;;;;;5068488;28;20457;-68
2021/03/04 07:08:34;;;;;;;11.57;10.37;;;11.40;26.40;;;;;;5068388;28;20408;-69
2021/03/04 07:11:03;;;;;;;10.27;9.27;;;11.50;26.20;;;;;;5048699;28;20473;-68
2021/03/04 07:13:31;;;;;;;13.90;10.27;;;11.50;26.50;;;;;;5057524;28;20921;-68
2021/03/04 07:16:01;;;;;;;11.40;9.70;;;11.50;26.20;;;;;;5049030;28;20449;-68
2021/03/04 07:18:27;;;;;;;20.93;12.13;;;11.60;25.70;;;;;;5064453;28;20472;-68
2021/03/04 07:20:54;;;;;;;18.60;14.97;;;11.60;25.90;;;;;;5072802;28;20469;-68
2021/03/04 07:23:20;;;;;;;16.80;12.93;;;11.60;26.30;;;;;;5073246;28;20507;-68
2021/03/04 07:25:46;;;;;;;13.97;10.73;;;11.70;26.40;;;;;;5071286;28;20421;-69
2021/03/04 07:28:12;;;;;;;15.90;11.20;;;11.70;25.80;;;;;;5062183;28;20188;-68
2021/03/04 07:30:38;;;;;;;14.57;10.73;;;11.80;26.50;;;;;;5052248;28;20847;-67
2021/03/04 07:33:04;;;;;;;8.47;7.67;;;11.80;27.30;;;;;;5066075;28;20191;-66
2021/03/04 07:35:30;;;;;;;12.30;8.80;;;13.10;45.20;;;;;;5070637;28;20523;-67
2021/03/04 07:37:55;;;;;;;7.93;7.23;;;13.40;31.30;;;;;;5066722;28;20441;-66
2021/03/04 07:40:21;;;;;;;10.20;8.87;;;14.40;38.80;;;;;;5065620;28;20474;-67
2021/03/04 07:42:46;;;;;;;13.83;9.30;;;14.80;27.40;;;;;;5052017;28;20258;-68
2021/03/04 07:45:17;;;;;;;11.63;8.70;;;14.30;28.40;;;;;;5060869;28;20219;-67
2021/03/04 07:47:43;;;;;;;10.30;8.57;;;13.70;24.90;;;;;;5070202;28;20210;-68
2021/03/04 07:50:17;;;;;;;10.90;8.77;;;13.30;20.40;;;;;;5069179;28;20928;-69
2021/03/04 07:52:43;;;;;;;12.97;9.23;;;12.90;20.30;;;;;;5060098;28;20584;-67
2021/03/04 07:55:11;;;;;;;11.47;9.33;;;12.80;21.40;;;;;;5065701;28;20480;-67
2021/03/04 07:57:49;;;;;;;11.67;8.37;;;12.80;21.10;;;;;;5071273;28;20591;-65
2021/03/04 08:00:15;;;;;;;9.90;8.27;;;12.90;20.80;;;;;;5072982;28;20457;-65
2021/03/04 08:02:43;;;;;;;9.23;8.33;;;12.70;21.10;;;;;;5053159;28;20500;-69
2021/03/04 08:05:15;;;;;;;10.90;8.20;;;12.50;20.60;;;;;;5060904;28;20456;-66
2021/03/04 08:07:43;;;;;;;11.70;9.33;;;12.50;21.00;;;;;;5072888;28;20493;-71
2021/03/04 08:10:28;;;;;;;13.27;10.23;;;12.70;21.40;;;;;;5070387;28;20448;-69
2021/03/04 08:12:57;;;;;;;17.57;10.20;;;12.70;22.40;;;;;;5053072;28;20448;-68
2021/03/04 08:15:30;;;;;;;11.33;8.60;;;12.80;21.60;;;;;;5052720;28;20418;-70
2021/03/04 08:17:57;;;;;;;12.27;9.20;;;12.80;21.30;;;;;;5052754;28;20497;-70
2021/03/04 08:20:23;;;;;;;10.60;9.37;;;12.70;21.40;;;;;;5052279;28;20462;-66
2021/03/04 08:22:54;;;;;;;12.50;9.20;;;12.70;21.70;;;;;;5052487;28;20406;-67
2021/03/04 08:25:22;;;;;;;13.17;9.53;;;12.70;21.20;;;;;;5066985;28;20995;-67
2021/03/04 08:27:48;;;;;;;11.90;9.00;;;12.80;20.90;;;;;;5071491;28;20413;-68
2021/03/04 08:30:24;;;;;;;14.83;9.70;;;12.80;22.30;;;;;;5072837;28;20425;-70
2021/03/04 08:32:53;;;;;;;9.40;8.50;;;12.90;21.10;;;;;;5072406;28;20417;-71
2021/03/04 08:35:20;;;;;;;12.87;8.10;;;12.90;21.20;;;;;;5071948;28;20421;-67
2021/03/04 08:37:46;;;;;;;12.27;8.30;;;12.80;20.30;;;;;;5072247;28;20420;-66
2021/03/04 08:40:12;;;;;;;12.00;9.13;;;12.80;20.60;;;;;;5072351;28;20465;-68
2021/03/04 08:42:38;;;;;;;8.77;7.87;;;12.90;20.50;;;;;;5072556;28;20182;-66
2021/03/04 08:45:04;;;;;;;9.63;8.40;;;13.10;21.10;;;;;;5072711;28;20930;-67
2021/03/04 08:47:30;;;;;;;9.67;8.67;;;13.10;20.20;;;;;;5072360;28;20511;-67
2021/03/04 08:49:58;;;;;;;9.70;8.40;;;13.00;20.10;;;;;;5070786;28;20422;-67
2021/03/04 08:52:28;;;;;;;12.17;8.60;;;13.00;20.10;;;;;;5071965;28;20514;-67
2021/03/04 08:54:56;;;;;;;10.93;8.30;;;13.10;20.30;;;;;;5063124;28;20764;-66
2021/03/04 08:57:23;;;;;;;10.97;8.90;;;13.10;20.70;;;;;;5071119;28;20849;-66
2021/03/04 08:59:49;;;;;;;9.27;7.43;;;13.10;20.00;;;;;;5071622;28;20485;-67
2021/03/04 09:02:15;;;;;;;10.93;8.50;;;13.20;20.20;;;;;;5071399;28;20510;-66
2021/03/04 09:04:45;;;;;;;12.50;8.30;;;13.10;20.20;;;;;;5071954;28;20231;-66
2021/03/04 09:07:12;;;;;;;10.70;8.27;;;13.30;20.60;;;;;;5071956;28;20425;-68
2021/03/04 09:09:38;;;;;;;9.27;7.77;;;13.40;19.80;;;;;;5064464;28;20784;-66
2021/03/04 09:12:04;;;;;;;8.77;7.00;;;13.30;20.00;;;;;;5065149;28;20428;-65
2021/03/04 09:14:31;;;;;;;9.30;8.37;;;13.20;19.40;;;;;;5071614;28;20178;-65
2021/03/04 09:16:58;;;;;;;8.60;7.70;;;13.10;19.60;;;;;;5062239;28;20430;-66
2021/03/04 09:19:35;;;;;;;13.00;8.27;;;13.10;19.70;;;;;;5051036;28;20466;-67
2021/03/04 09:22:08;;;;;;;10.00;8.03;;;13.10;20.10;;;;;;5056819;28;20440;-67
2021/03/04 09:24:34;;;;;;;13.33;9.33;;;13.20;20.50;;;;;;5069924;28;20409;-67
2021/03/04 09:27:11;;;;;;;11.03;7.93;;;13.40;20.20;;;;;;5072089;28;20957;-66
2021/03/04 09:29:41;;;;;;;8.00;7.10;;;13.40;20.30;;;;;;5071604;28;20424;-67
2021/03/04 09:32:07;;;;;;;13.53;8.23;;;13.40;20.00;;;;;;5071265;28;20428;-67
2021/03/04 09:34:34;;;;;;;14.13;8.50;;;13.40;20.10;;;;;;5071680;28;20836;-65
2021/03/04 09:37:14;;;;;;;9.30;8.40;;;13.40;20.90;;;;;;5071039;28;20965;-65
2021/03/04 09:39:44;;;;;;;11.30;8.00;;;13.50;20.50;;;;;;5069933;28;20489;-68
2021/03/04 09:42:11;;;;;;;10.23;8.83;;;13.50;20.70;;;;;;5058531;28;20422;-67
2021/03/04 09:44:55;;;;;;;11.83;8.57;;;13.50;20.40;;;;;;5051436;28;20411;-68
2021/03/04 09:47:23;;;;;;;9.50;8.00;;;13.60;20.40;;;;;;5063938;28;20424;-66
2021/03/04 09:49:49;;;;;;;10.03;8.07;;;13.70;21.00;;;;;;5067503;28;20421;-67
2021/03/04 09:52:20;;;;;;;12.80;7.17;;;13.70;20.60;;;;;;5063344;28;20416;-66
2021/03/04 09:54:46;;;;;;;12.23;7.87;;;13.90;20.60;;;;;;5070697;28;20497;-66
2021/03/04 09:57:19;;;;;;;10.80;8.37;;;13.90;20.30;;;;;;5066262;28;20857;-66
2021/03/04 09:59:48;;;;;;;12.63;7.33;;;13.90;20.30;;;;;;5050597;28;20560;-67
2021/03/04 10:02:16;;;;;;;11.70;7.90;;;14.00;20.40;;;;;;5050430;28;20947;-67
2021/03/04 10:05:00;;;;;;;11.23;8.60;;;14.10;20.20;;;;;;5050749;28;20417;-65
2021/03/04 10:07:31;;;;;;;10.57;9.33;;;14.30;21.20;;;;;;5050523;28;20932;-69
2021/03/04 10:09:57;;;;;;;11.53;9.03;;;14.40;21.00;;;;;;5050292;28;20422;-65
2021/03/04 10:12:23;;;;;;;11.37;9.47;;;14.40;21.00;;;;;;5059984;28;21163;-69
2021/03/04 10:14:53;;;;;;;9.63;7.87;;;14.40;20.90;;;;;;5070724;28;20728;-67
2021/03/04 10:17:18;;;;;;;10.50;9.03;;;14.40;20.70;;;;;;5070384;28;20504;-68
2021/03/04 10:19:44;;;;;;;10.73;9.13;;;14.60;21.70;;;;;;5070381;28;20441;-67
2021/03/04 10:22:11;;;;;;;16.37;9.30;;;14.70;21.50;;;;;;5070717;28;20168;-69
2021/03/04 10:24:37;;;;;;;13.63;9.10;;;14.80;21.70;;;;;;5070330;28;20183;-70
2021/03/04 10:27:06;;;;;;;11.13;8.87;;;14.80;21.10;;;;;;5070383;28;20489;-68
2021/03/04 10:29:34;;;;;;;12.33;10.20;;;14.90;21.00;;;;;;5068913;28;20422;-69
2021/03/04 10:32:00;;;;;;;11.17;9.97;;;14.80;21.50;;;;;;5062627;28;20446;-67
2021/03/04 10:34:26;;;;;;;16.53;11.50;;;14.80;21.70;;;;;;5050511;28;20414;-68
2021/03/04 10:36:52;;;;;;;15.30;10.17;;;14.90;21.80;;;;;;5061471;28;20421;-68
2021/03/04 10:39:19;;;;;;;16.03;11.73;;;15.00;21.80;;;;;;5069846;28;20455;-68
2021/03/04 10:41:45;;;;;;;19.87;11.37;;;15.00;21.50;;;;;;5070184;28;20928;-68
2021/03/04 10:44:11;;;;;;;18.13;11.73;;;15.10;21.60;;;;;;5070293;28;20401;-67
2021/03/04 10:46:38;;;;;;;20.07;13.33;;;15.10;22.00;;;;;;5054321;28;20186;-68
2021/03/04 10:49:04;;;;;;;13.50;11.47;;;15.20;21.70;;;;;;5048706;28;20493;-66
2021/03/04 10:51:31;;;;;;;14.70;11.20;;;15.20;21.60;;;;;;5052549;28;20549;-67
2021/03/04 10:53:57;;;;;;;18.90;13.27;;;15.20;21.70;;;;;;5067960;28;20452;-68
2021/03/04 10:56:22;;;;;;;13.70;10.13;;;15.30;21.90;;;;;;5050277;28;20441;-67
2021/03/04 10:58:48;;;;;;;17.33;11.67;;;15.30;20.70;;;;;;5050177;28;20206;-66
2021/03/04 11:01:14;;;;;;;11.53;10.33;;;15.30;20.70;;;;;;5049609;28;20257;-66
2021/03/04 11:03:39;;;;;;;12.07;9.40;;;15.40;20.20;;;;;;5050258;28;20180;-71
2021/03/04 11:06:05;;;;;;;16.33;12.30;;;15.50;20.40;;;;;;5050196;28;20708;-72
2021/03/04 11:08:31;;;;;;;12.93;9.20;;;15.40;20.80;;;;;;5050555;28;20211;-67
2021/03/04 11:10:57;;;;;;;13.93;10.00;;;15.50;21.50;;;;;;5049336;28;21131;-69
2021/03/04 11:13:22;;;;;;;15.20;9.73;;;15.60;20.50;;;;;;5050582;28;20179;-70
2021/03/04 11:15:48;;;;;;;14.00;11.33;;;15.70;20.10;;;;;;5050252;28;20180;-70
2021/03/04 11:18:13;;;;;;;11.57;10.40;;;15.80;20.30;;;;;;5050212;28;20172;-68
2021/03/04 11:20:39;;;;;;;18.37;12.43;;;16.00;20.40;;;;;;5050265;28;20778;-69
2021/03/04 11:23:05;;;;;;;17.50;10.17;;;16.10;19.90;;;;;;5050545;28;20298;-69
2021/03/04 11:25:31;;;;;;;14.70;11.40;;;16.20;20.10;;;;;;5050409;28;20681;-69
2021/03/04 11:27:57;;;;;;;16.00;12.10;;;16.30;19.70;;;;;;5049896;28;20168;-69
2021/03/04 11:30:23;;;;;;;17.70;10.27;;;16.30;19.90;;;;;;5067808;28;20205;-69
2021/03/04 11:32:48;;;;;;;12.90;11.60;;;16.20;19.50;;;;;;5070196;28;20405;-69
2021/03/04 11:35:14;;;;;;;17.20;11.20;;;16.20;19.80;;;;;;5070112;28;20172;-69
2021/03/04 11:37:40;;;;;;;12.23;10.93;;;16.20;19.90;;;;;;5069827;28;20472;-69
2021/03/04 11:40:06;;;;;;;13.03;10.50;;;16.10;19.50;;;;;;5069965;28;20218;-69
2021/03/04 11:42:32;;;;;;;9.73;7.90;;;16.10;20.60;;;;;;5070085;28;20202;-70
2021/03/04 11:44:58;;;;;;;12.20;9.90;;;16.10;23.20;;;;;;5070015;28;20397;-68
2021/03/04 11:47:23;;;;;;;16.43;9.67;;;16.20;21.60;;;;;;5069861;28;20455;-68
2021/03/04 11:49:49;;;;;;;17.43;8.60;;;16.20;22.70;;;;;;5069967;28;20175;-68
2021/03/04 11:52:14;;;;;;;15.63;11.10;;;16.50;27.40;;;;;;5069904;28;20650;-68
2021/03/04 11:54:40;;;;;;;15.33;11.53;;;16.30;20.10;;;;;;5069893;28;20199;-69
2021/03/04 11:57:06;;;;;;;13.90;11.00;;;16.20;20.00;;;;;;5069731;28;20304;-67
2021/03/04 11:59:31;;;;;;;17.37;12.13;;;16.20;20.10;;;;;;5068605;28;20203;-68
2021/03/04 12:01:57;;;;;;;17.33;12.10;;;16.10;20.00;;;;;;5070033;28;20720;-68
2021/03/04 12:04:22;;;;;;;19.93;12.87;;;16.10;20.40;;;;;;5072417;28;20175;-66
2021/03/04 12:06:48;;;;;;;17.90;13.40;;;16.20;20.50;;;;;;5065383;28;20657;-67
2021/03/04 12:09:14;;;;;;;21.83;16.03;;;16.30;20.30;;;;;;5073366;28;20195;-67
2021/03/04 12:11:39;;;;;;;20.37;12.60;;;16.30;20.50;;;;;;5073528;28;20215;-68
2021/03/04 12:14:05;;;;;;;11.07;9.50;;;16.30;20.10;;;;;;5071853;28;20171;-67
2021/03/04 12:16:30;;;;;;;13.93;10.40;;;16.30;19.20;;;;;;5053374;28;20651;-66
2021/03/04 12:18:56;;;;;;;17.47;10.07;;;16.20;19.10;;;;;;5073246;28;20184;-66
2021/03/04 12:21:23;;;;;;;13.97;10.13;;;16.20;18.80;;;;;;5072945;28;20215;-68
2021/03/04 12:23:49;;;;;;;11.90;9.20;;;16.20;18.60;;;;;;5073244;28;20179;-67
2021/03/04 12:26:15;;;;;;;10.90;8.10;;;16.20;19.00;;;;;;5072511;28;20405;-65
2021/03/04 12:28:40;;;;;;;16.27;8.47;;;16.20;17.90;;;;;;5072734;28;20168;-65
2021/03/04 12:31:06;;;;;;;22.60;7.83;;;16.20;17.30;;;;;;5072952;28;20257;-66
2021/03/04 12:33:31;;;;;;;11.57;8.13;;;16.30;17.00;;;;;;5072955;28;20182;-66
2021/03/04 12:35:57;;;;;;;14.13;7.13;;;16.20;16.70;;;;;;5072691;28;20807;-67